Time;durP1;ratioP1;P1;durP2;ratioP2;P2;SDS_P1;SDS_P2;PMS_P1;PMS_P2;Temp;Humidity;BMP_temperature;BMP_pressure;BME280_temperature;BME280_humidity;BME280_pressure;Samples;Min_cycle;Max_cycle;Signal;HPM_P1;HPM_P2
2024/03/16 00:00:48;;;;;;;;;;;22.80;38.30;;;;;;5073312;28;19928;-63
2024/03/16 00:03:15;;;;;;;;;;;22.80;38.40;;;;;;5073395;28;19924;-63
2024/03/16 00:05:42;;;;;;;;;;;22.80;38.40;;;;;;5072946;28;20382;-62
2024/03/16 00:08:08;;;;;;;;;;;22.80;38.40;;;;;;5072899;28;20297;-62
2024/03/16 00:10:35;;;;;;;;;;;22.80;38.40;;;;;;5073707;28;20343;-62
2024/03/16 00:13:02;;;;;;;;;;;22.80;38.40;;;;;;5077097;28;19924;-62
2024/03/16 00:15:29;;;;;;;;;;;22.70;38.40;;;;;;5077168;28;19973;-62
2024/03/16 00:17:56;;;;;;;;;;;22.80;38.40;;;;;;5076804;28;19932;-62
2024/03/16 00:20:25;;;;;;;;;;;22.80;38.40;;;;;;5076740;28;19924;-63
2024/03/16 00:22:52;;;;;;;;;;;22.70;38.40;;;;;;5076976;28;19924;-65
2024/03/16 00:25:19;;;;;;;;;;;22.80;38.50;;;;;;5075720;28;19928;-63
2024/03/16 00:27:46;;;;;;;;;;;22.70;38.50;;;;;;5076656;28;19950;-62
2024/03/16 00:30:14;;;;;;;;;;;22.70;38.50;;;;;;5077110;28;19931;-63
2024/03/16 00:32:41;;;;;;;;;;;22.80;38.50;;;;;;5076789;28;19925;-62
2024/03/16 00:35:08;;;;;;;;;;;22.70;38.50;;;;;;5076567;28;19924;-62
2024/03/16 00:37:35;;;;;;;;;;;22.70;38.50;;;;;;5076240;28;19924;-62
2024/03/16 00:40:03;;;;;;;;;;;22.70;38.50;;;;;;5076464;28;19925;-63
2024/03/16 00:42:30;;;;;;;;;;;22.70;38.40;;;;;;5076180;28;20301;-63
2024/03/16 00:44:57;;;;;;;;;;;22.70;38.40;;;;;;5075317;28;19930;-63
2024/03/16 00:47:24;;;;;;;;;;;22.80;38.50;;;;;;5075961;28;20378;-63
2024/03/16 00:49:51;;;;;;;;;;;22.70;38.40;;;;;;5076609;28;20333;-62
2024/03/16 00:52:19;;;;;;;;;;;22.80;38.50;;;;;;5076463;28;19924;-62
2024/03/16 00:54:46;;;;;;;;;;;22.80;38.50;;;;;;5076451;28;19924;-62
2024/03/16 00:57:13;;;;;;;;;;;22.80;38.50;;;;;;5075984;28;19924;-63
2024/03/16 00:59:40;;;;;;;;;;;22.70;38.40;;;;;;5076061;28;19955;-62
2024/03/16 01:02:07;;;;;;;;;;;22.80;38.50;;;;;;5076054;28;19977;-63
2024/03/16 01:04:34;;;;;;;;;;;22.70;38.40;;;;;;5076038;28;19932;-62
2024/03/16 01:07:01;;;;;;;;;;;22.80;38.50;;;;;;5076137;28;19925;-63
2024/03/16 01:09:29;;;;;;;;;;;22.70;38.50;;;;;;5075923;28;19924;-63
2024/03/16 01:11:56;;;;;;;;;;;22.70;38.50;;;;;;5076046;28;19924;-62
2024/03/16 01:14:23;;;;;;;;;;;22.70;38.50;;;;;;5076112;28;19970;-62
2024/03/16 01:16:50;;;;;;;;;;;22.70;38.50;;;;;;5075401;28;20445;-62
2024/03/16 01:19:16;;;;;;;;;;;22.70;38.50;;;;;;5074959;28;19925;-62
2024/03/16 01:21:43;;;;;;;;;;;22.70;38.50;;;;;;5075496;28;19975;-62
2024/03/16 01:24:10;;;;;;;;;;;22.70;38.60;;;;;;5075079;28;19928;-63
2024/03/16 01:26:37;;;;;;;;;;;22.70;38.50;;;;;;5075737;28;19924;-62
2024/03/16 01:29:05;;;;;;;;;;;22.70;38.60;;;;;;5075929;28;19925;-63
2024/03/16 01:31:32;;;;;;;;;;;22.70;38.60;;;;;;5075850;28;19924;-62
2024/03/16 01:33:58;;;;;;;;;;;22.70;38.60;;;;;;5075771;28;19931;-62
2024/03/16 01:36:25;;;;;;;;;;;22.70;38.60;;;;;;5075659;28;19970;-63
2024/03/16 01:38:53;;;;;;;;;;;22.70;39.20;;;;;;5075208;28;20340;-62
2024/03/16 01:41:22;;;;;;;;;;;22.70;38.60;;;;;;5075481;28;19931;-62
2024/03/16 01:43:49;;;;;;;;;;;22.70;38.60;;;;;;5075233;28;20011;-62
2024/03/16 01:46:17;;;;;;;;;;;22.70;38.60;;;;;;5075165;28;20409;-62
2024/03/16 01:48:44;;;;;;;;;;;22.70;38.60;;;;;;5075036;28;20421;-62
2024/03/16 01:51:12;;;;;;;;;;;22.70;38.60;;;;;;5075389;28;20266;-63
2024/03/16 01:53:39;;;;;;;;;;;22.70;38.60;;;;;;5073807;28;19924;-62
2024/03/16 01:56:06;;;;;;;;;;;22.70;38.50;;;;;;5074899;28;20389;-62
2024/03/16 01:58:42;;;;;;;;;;;22.70;38.50;;;;;;5075094;28;19947;-63
2024/03/16 02:01:10;;;;;;;;;;;22.70;38.60;;;;;;5075062;28;19924;-63
2024/03/16 02:03:37;;;;;;;;;;;22.70;38.60;;;;;;5075173;28;19931;-62
2024/03/16 02:06:04;;;;;;;;;;;22.70;38.60;;;;;;5074792;28;20378;-62
2024/03/16 02:08:31;;;;;;;;;;;22.70;38.60;;;;;;5074707;28;20451;-63
2024/03/16 02:10:57;;;;;;;;;;;22.70;38.60;;;;;;5074993;28;19963;-62
2024/03/16 02:13:25;;;;;;;;;;;22.70;38.60;;;;;;5074521;28;20385;-63
2024/03/16 02:15:52;;;;;;;;;;;22.70;38.50;;;;;;5074897;28;20008;-62
2024/03/16 02:18:19;;;;;;;;;;;22.70;38.60;;;;;;5074934;28;20361;-63
2024/03/16 02:20:46;;;;;;;;;;;22.70;38.50;;;;;;5074469;28;20019;-62
2024/03/16 02:23:15;;;;;;;;;;;22.70;38.50;;;;;;5074592;28;19930;-63
2024/03/16 02:25:42;;;;;;;;;;;22.70;38.60;;;;;;5074728;28;20011;-63
2024/03/16 02:28:09;;;;;;;;;;;22.70;38.60;;;;;;5074171;28;20278;-62
2024/03/16 02:30:36;;;;;;;;;;;22.60;38.50;;;;;;5074197;28;20374;-62
2024/03/16 02:33:07;;;;;;;;;;;22.60;38.50;;;;;;5074359;28;20014;-62
2024/03/16 02:35:34;;;;;;;;;;;22.70;38.60;;;;;;5074100;28;19931;-62
2024/03/16 02:38:01;;;;;;;;;;;22.70;38.60;;;;;;5074064;28;19963;-62
2024/03/16 02:40:28;;;;;;;;;;;22.60;38.60;;;;;;5074247;28;20378;-63
2024/03/16 02:42:55;;;;;;;;;;;22.60;38.60;;;;;;5074035;28;20015;-62
2024/03/16 02:45:22;;;;;;;;;;;22.60;38.60;;;;;;5074124;28;20369;-62
2024/03/16 02:47:49;;;;;;;;;;;22.60;38.60;;;;;;5073737;28;19925;-62
2024/03/16 02:50:16;;;;;;;;;;;22.60;38.60;;;;;;5073903;28;19924;-65
2024/03/16 02:52:45;;;;;;;;;;;22.60;38.70;;;;;;5074132;28;19977;-62
2024/03/16 02:55:13;;;;;;;;;;;22.60;38.70;;;;;;5073927;28;20374;-62
2024/03/16 02:57:40;;;;;;;;;;;22.60;38.70;;;;;;5073537;28;19931;-62
2024/03/16 03:00:10;;;;;;;;;;;22.60;38.70;;;;;;5073611;28;19928;-62
2024/03/16 03:02:38;;;;;;;;;;;22.60;38.70;;;;;;5073705;28;20011;-63
2024/03/16 03:05:10;;;;;;;;;;;22.60;38.60;;;;;;5073762;28;20442;-63
2024/03/16 03:07:38;;;;;;;;;;;22.60;38.60;;;;;;5072708;28;20381;-62
2024/03/16 03:10:07;;;;;;;;;;;22.60;38.60;;;;;;5073930;28;19931;-63
2024/03/16 03:12:34;;;;;;;;;;;22.60;38.70;;;;;;5073408;28;19924;-62
2024/03/16 03:15:01;;;;;;;;;;;22.60;38.60;;;;;;5073629;28;19928;-62
2024/03/16 03:17:28;;;;;;;;;;;22.60;38.60;;;;;;5073296;28;19959;-63
2024/03/16 03:19:55;;;;;;;;;;;22.60;38.60;;;;;;5073641;28;19928;-63
2024/03/16 03:22:22;;;;;;;;;;;22.60;38.70;;;;;;5073423;28;20394;-63
2024/03/16 03:24:49;;;;;;;;;;;22.60;38.60;;;;;;5073420;28;19932;-63
2024/03/16 03:27:16;;;;;;;;;;;22.60;38.70;;;;;;5073632;28;19932;-62
2024/03/16 03:29:43;;;;;;;;;;;22.60;38.70;;;;;;5073649;28;19970;-63
2024/03/16 03:32:10;;;;;;;;;;;22.60;38.70;;;;;;5073627;28;19924;-63
2024/03/16 03:34:36;;;;;;;;;;;22.60;38.70;;;;;;5073431;28;19931;-63
2024/03/16 03:37:03;;;;;;;;;;;22.60;38.70;;;;;;5073115;28;20382;-62
2024/03/16 03:39:30;;;;;;;;;;;22.60;38.70;;;;;;5073286;28;19925;-63
2024/03/16 03:41:58;;;;;;;;;;;22.60;38.70;;;;;;5073596;28;20294;-63
2024/03/16 03:44:35;;;;;;;;;;;22.60;38.70;;;;;;5073368;28;20401;-63
2024/03/16 03:47:03;;;;;;;;;;;22.60;38.70;;;;;;5072532;28;19930;-62
2024/03/16 03:49:32;;;;;;;;;;;22.60;38.70;;;;;;5073247;28;19924;-63
2024/03/16 03:52:01;;;;;;;;;;;22.60;38.70;;;;;;5073212;28;19924;-62
2024/03/16 03:54:31;;;;;;;;;;;22.60;38.70;;;;;;5073434;28;19934;-63
2024/03/16 03:56:59;;;;;;;;;;;22.60;38.80;;;;;;5073006;28;20011;-62
2024/03/16 03:59:26;;;;;;;;;;;22.60;38.80;;;;;;5073439;28;19931;-63
2024/03/16 04:01:53;;;;;;;;;;;22.60;38.80;;;;;;5073035;28;20438;-62
2024/03/16 04:04:20;;;;;;;;;;;22.60;38.80;;;;;;5073217;28;19924;-62
2024/03/16 04:06:47;;;;;;;;;;;22.60;38.80;;;;;;5072806;28;19924;-63
2024/03/16 04:09:14;;;;;;;;;;;22.60;38.80;;;;;;5073310;28;19924;-62
2024/03/16 04:11:41;;;;;;;;;;;22.60;38.70;;;;;;5072983;28;19928;-63
2024/03/16 04:14:08;;;;;;;;;;;22.60;38.70;;;;;;5072979;28;19928;-63
2024/03/16 04:16:35;;;;;;;;;;;22.60;38.70;;;;;;5072814;28;19930;-63
2024/03/16 04:19:02;;;;;;;;;;;22.60;38.70;;;;;;5072915;28;20417;-63
2024/03/16 04:21:30;;;;;;;;;;;22.60;38.70;;;;;;5072907;28;19931;-62
2024/03/16 04:23:57;;;;;;;;;;;22.60;38.70;;;;;;5072794;28;19968;-63
2024/03/16 04:26:25;;;;;;;;;;;22.60;38.70;;;;;;5072972;28;19925;-62
2024/03/16 04:28:52;;;;;;;;;;;22.60;38.70;;;;;;5072620;28;19939;-63
2024/03/16 04:31:19;;;;;;;;;;;22.60;38.70;;;;;;5073266;28;19978;-62
2024/03/16 04:33:46;;;;;;;;;;;22.60;38.70;;;;;;5071596;28;19924;-63
2024/03/16 04:36:13;;;;;;;;;;;22.60;38.70;;;;;;5072749;28;20334;-62
2024/03/16 04:38:40;;;;;;;;;;;22.60;38.70;;;;;;5072570;28;19970;-62
2024/03/16 04:41:07;;;;;;;;;;;22.60;38.60;;;;;;5073150;28;19963;-62
2024/03/16 04:43:35;;;;;;;;;;;22.60;38.50;;;;;;5072888;28;19931;-65
2024/03/16 04:46:02;;;;;;;;;;;22.60;38.30;;;;;;5072524;28;19971;-63
2024/03/16 04:48:28;;;;;;;;;;;22.60;38.20;;;;;;5071264;28;19970;-62
2024/03/16 04:50:56;;;;;;;;;;;22.60;38.10;;;;;;5071429;28;19930;-62
2024/03/16 04:53:23;;;;;;;;;;;22.60;38.10;;;;;;5072874;28;19928;-62
2024/03/16 04:55:51;;;;;;;;;;;22.70;38.10;;;;;;5072671;28;19972;-63
2024/03/16 04:58:18;;;;;;;;;;;22.60;38.00;;;;;;5072094;28;19960;-62
2024/03/16 05:00:45;;;;;;;;;;;22.70;38.10;;;;;;5076390;28;20004;-63
2024/03/16 05:03:12;;;;;;;;;;;22.60;38.10;;;;;;5076049;28;19924;-62
2024/03/16 05:05:39;;;;;;;;;;;22.60;38.00;;;;;;5075893;28;20378;-63
2024/03/16 05:08:07;;;;;;;;;;;22.60;38.00;;;;;;5075757;28;19924;-62
2024/03/16 05:10:34;;;;;;;;;;;22.70;38.00;;;;;;5076147;28;20010;-62
2024/03/16 05:13:02;;;;;;;;;;;22.60;38.00;;;;;;5075801;28;19924;-62
2024/03/16 05:15:29;;;;;;;;;;;22.60;38.00;;;;;;5074891;28;19925;-62
2024/03/16 05:17:57;;;;;;;;;;;22.60;38.00;;;;;;5075872;28;19924;-62
2024/03/16 05:20:25;;;;;;;;;;;22.70;38.00;;;;;;5075832;28;19978;-62
2024/03/16 05:22:52;;;;;;;;;;;22.60;38.00;;;;;;5075653;28;19938;-63
2024/03/16 05:25:19;;;;;;;;;;;22.70;38.00;;;;;;5076072;28;19924;-63
2024/03/16 05:27:46;;;;;;;;;;;22.70;38.00;;;;;;5075688;28;19972;-63
2024/03/16 05:30:15;;;;;;;;;;;22.70;38.00;;;;;;5075901;28;19931;-63
2024/03/16 05:32:42;;;;;;;;;;;22.70;38.00;;;;;;5075738;28;19928;-65
2024/03/16 05:35:10;;;;;;;;;;;22.70;38.00;;;;;;5075704;28;19964;-62
2024/03/16 05:37:37;;;;;;;;;;;22.70;38.00;;;;;;5075507;28;19924;-63
2024/03/16 05:40:04;;;;;;;;;;;22.70;38.00;;;;;;5074496;28;19924;-63
2024/03/16 05:42:34;;;;;;;;;;;22.80;38.00;;;;;;5075288;28;19938;-62
2024/03/16 05:45:01;;;;;;;;;;;22.70;37.90;;;;;;5075678;28;20435;-62
2024/03/16 05:47:28;;;;;;;;;;;22.70;37.90;;;;;;5075291;28;19925;-62
2024/03/16 05:49:55;;;;;;;;;;;22.80;38.00;;;;;;5074282;28;19964;-63
2024/03/16 05:52:22;;;;;;;;;;;22.80;38.00;;;;;;5075169;28;20031;-62
2024/03/16 05:54:49;;;;;;;;;;;22.80;38.00;;;;;;5075393;28;20352;-63
2024/03/16 05:57:16;;;;;;;;;;;22.80;38.00;;;;;;5075187;28;19924;-62
2024/03/16 05:59:43;;;;;;;;;;;22.80;38.00;;;;;;5074958;28;19983;-62
2024/03/16 06:02:10;;;;;;;;;;;22.80;38.00;;;;;;5075252;28;19974;-62
2024/03/16 06:04:37;;;;;;;;;;;22.80;38.00;;;;;;5075257;28;20378;-62
2024/03/16 06:07:04;;;;;;;;;;;22.90;38.00;;;;;;5074871;28;19924;-63
2024/03/16 06:09:31;;;;;;;;;;;22.90;38.00;;;;;;5074419;28;19931;-62
2024/03/16 06:11:58;;;;;;;;;;;22.80;38.00;;;;;;5075040;28;19928;-62
2024/03/16 06:14:25;;;;;;;;;;;22.90;38.10;;;;;;5074558;28;19979;-63
2024/03/16 06:16:52;;;;;;;;;;;22.90;38.10;;;;;;5073535;28;20143;-63
2024/03/16 06:19:20;;;;;;;;;;;22.90;38.10;;;;;;5074854;28;19952;-62
2024/03/16 06:21:47;;;;;;;;;;;22.90;38.10;;;;;;5074445;28;19924;-62
2024/03/16 06:24:14;;;;;;;;;;;22.90;38.10;;;;;;5074786;28;19930;-63
2024/03/16 06:26:49;;;;;;;;;;;22.90;38.10;;;;;;5074408;28;20302;-63
2024/03/16 06:29:18;;;;;;;;;;;22.90;38.10;;;;;;5074279;28;19924;-63
2024/03/16 06:31:48;;;;;;;;;;;23.00;38.10;;;;;;5074562;28;20279;-62
2024/03/16 06:34:15;;;;;;;;;;;23.00;38.00;;;;;;5074265;28;20023;-63
2024/03/16 06:36:41;;;;;;;;;;;23.00;38.00;;;;;;5074520;28;19928;-62
2024/03/16 06:39:12;;;;;;;;;;;23.00;38.00;;;;;;5074547;28;19924;-63
2024/03/16 06:41:38;;;;;;;;;;;23.00;38.00;;;;;;5074449;28;20336;-62
2024/03/16 06:44:05;;;;;;;;;;;23.00;38.00;;;;;;5074120;28;19925;-63
2024/03/16 06:46:32;;;;;;;;;;;23.00;38.00;;;;;;5073974;28;20028;-62
2024/03/16 06:49:05;;;;;;;;;;;23.10;38.00;;;;;;5074175;28;19931;-63
2024/03/16 06:51:33;;;;;;;;;;;23.10;38.00;;;;;;5073839;28;19928;-62
2024/03/16 06:54:00;;;;;;;;;;;23.10;37.90;;;;;;5073859;28;19932;-63
2024/03/16 06:56:27;;;;;;;;;;;23.10;37.90;;;;;;5073959;28;19931;-62
2024/03/16 06:58:54;;;;;;;;;;;23.10;37.90;;;;;;5073817;28;19968;-63
2024/03/16 07:01:24;;;;;;;;;;;23.10;37.90;;;;;;5074186;28;19924;-62
2024/03/16 07:03:51;;;;;;;;;;;23.20;37.90;;;;;;5074062;28;19994;-62
2024/03/16 07:06:18;;;;;;;;;;;23.20;37.90;;;;;;5073725;28;19924;-63
2024/03/16 07:08:45;;;;;;;;;;;23.20;37.90;;;;;;5073439;28;19925;-62
2024/03/16 07:11:12;;;;;;;;;;;23.30;37.90;;;;;;5073747;28;19979;-63
2024/03/16 07:13:39;;;;;;;;;;;23.30;37.90;;;;;;5073403;28;19932;-62
2024/03/16 07:16:15;;;;;;;;;;;23.30;37.80;;;;;;5073970;28;20023;-63
2024/03/16 07:18:43;;;;;;;;;;;23.30;37.80;;;;;;5073724;28;19924;-63
2024/03/16 07:21:10;;;;;;;;;;;23.30;37.80;;;;;;5072782;28;19928;-63
2024/03/16 07:23:39;;;;;;;;;;;23.30;37.80;;;;;;5073472;28;20439;-63
2024/03/16 07:26:07;;;;;;;;;;;23.40;37.80;;;;;;5072415;28;19930;-63
2024/03/16 07:28:34;;;;;;;;;;;23.40;37.80;;;;;;5073231;28;20019;-63
2024/03/16 07:31:03;;;;;;;;;;;23.40;37.80;;;;;;5073877;28;19967;-64
2024/03/16 07:33:30;;;;;;;;;;;23.40;37.80;;;;;;5072811;28;19925;-63
2024/03/16 07:35:58;;;;;;;;;;;23.50;37.80;;;;;;5073738;28;19931;-63
2024/03/16 07:38:25;;;;;;;;;;;23.50;37.80;;;;;;5073400;28;20019;-63
2024/03/16 07:40:52;;;;;;;;;;;23.50;37.80;;;;;;5073320;28;19928;-63
2024/03/16 07:43:19;;;;;;;;;;;23.60;37.90;;;;;;5073378;28;19970;-62
2024/03/16 07:45:49;;;;;;;;;;;23.60;37.80;;;;;;5073669;28;20352;-62
2024/03/16 07:48:16;;;;;;;;;;;23.60;37.70;;;;;;5073025;28;19925;-63
2024/03/16 07:50:43;;;;;;;;;;;23.60;37.70;;;;;;5073525;28;19931;-62
2024/03/16 07:53:10;;;;;;;;;;;23.70;37.70;;;;;;5073221;28;20373;-63
2024/03/16 07:55:38;;;;;;;;;;;23.70;37.60;;;;;;5073512;28;19970;-62
2024/03/16 07:58:05;;;;;;;;;;;23.70;37.60;;;;;;5073235;28;19925;-62
2024/03/16 08:00:32;;;;;;;;;;;23.80;37.60;;;;;;5073166;28;19928;-62
2024/03/16 08:03:00;;;;;;;;;;;23.90;37.50;;;;;;5073339;28;19924;-62
2024/03/16 08:05:27;;;;;;;;;;;23.90;37.40;;;;;;5073480;28;19971;-62
2024/03/16 08:07:54;;;;;;;;;;;24.00;37.40;;;;;;5073386;28;19960;-62
2024/03/16 08:10:21;;;;;;;;;;;24.00;37.30;;;;;;5073033;28;19924;-63
2024/03/16 08:12:48;;;;;;;;;;;24.10;37.30;;;;;;5073289;28;19924;-62
2024/03/16 08:15:15;;;;;;;;;;;24.10;37.10;;;;;;5073229;28;19924;-62
2024/03/16 08:17:42;;;;;;;;;;;24.10;37.00;;;;;;5072747;28;19964;-62
2024/03/16 08:20:11;;;;;;;;;;;24.20;37.00;;;;;;5073234;28;19971;-63
2024/03/16 08:22:43;;;;;;;;;;;24.20;37.00;;;;;;5072821;28;19931;-62
2024/03/16 08:25:13;;;;;;;;;;;24.30;36.90;;;;;;5071636;28;20023;-64
2024/03/16 08:27:40;;;;;;;;;;;24.30;36.80;;;;;;5071687;28;19939;-62
2024/03/16 08:30:07;;;;;;;;;;;24.40;36.80;;;;;;5073262;28;19928;-62
2024/03/16 08:32:34;;;;;;;;;;;24.50;36.70;;;;;;5074570;28;19929;-63
2024/03/16 08:35:03;;;;;;;;;;;24.50;36.70;;;;;;5076917;28;19951;-62
2024/03/16 08:37:30;;;;;;;;;;;24.60;36.70;;;;;;5075373;28;19932;-63
2024/03/16 08:39:57;;;;;;;;;;;24.60;36.60;;;;;;5076749;28;19925;-62
2024/03/16 08:42:24;;;;;;;;;;;24.60;36.50;;;;;;5076471;28;20420;-62
2024/03/16 08:44:52;;;;;;;;;;;24.60;36.50;;;;;;5076430;28;20394;-62
2024/03/16 08:47:19;;;;;;;;;;;24.70;36.50;;;;;;5075114;28;20439;-62
2024/03/16 08:49:46;;;;;;;;;;;24.70;36.50;;;;;;5076593;28;20018;-62
2024/03/16 08:52:13;;;;;;;;;;;24.80;36.50;;;;;;5076298;28;19924;-62
2024/03/16 08:54:40;;;;;;;;;;;24.70;36.30;;;;;;5075048;28;19925;-62
2024/03/16 08:57:07;;;;;;;;;;;24.80;36.90;;;;;;5076361;28;20023;-62
2024/03/16 08:59:36;;;;;;;;;;;24.80;36.30;;;;;;5076248;28;20393;-62
2024/03/16 09:02:03;;;;;;;;;;;24.90;36.30;;;;;;5076155;28;19964;-63
2024/03/16 09:04:32;;;;;;;;;;;24.80;36.30;;;;;;5076498;28;19924;-63
2024/03/16 09:06:59;;;;;;;;;;;24.80;36.30;;;;;;5076103;28;20336;-62
2024/03/16 09:09:27;;;;;;;;;;;24.80;36.30;;;;;;5076008;28;19924;-63
2024/03/16 09:11:54;;;;;;;;;;;24.90;36.40;;;;;;5075799;28;19932;-62
2024/03/16 09:14:21;;;;;;;;;;;24.90;36.40;;;;;;5076136;28;20003;-63
2024/03/16 09:16:48;;;;;;;;;;;24.90;36.40;;;;;;5076032;28;19924;-62
2024/03/16 09:19:15;;;;;;;;;;;24.90;36.30;;;;;;5075616;28;19955;-62
2024/03/16 09:21:42;;;;;;;;;;;24.80;36.30;;;;;;5075689;28;20007;-62
2024/03/16 09:24:09;;;;;;;;;;;24.90;36.30;;;;;;5075752;28;20428;-62
2024/03/16 09:26:36;;;;;;;;;;;24.90;36.40;;;;;;5075586;28;20027;-63
2024/03/16 09:29:04;;;;;;;;;;;24.80;36.40;;;;;;5076263;28;20336;-62
2024/03/16 09:31:31;;;;;;;;;;;24.80;36.50;;;;;;5075546;28;19950;-62
2024/03/16 09:33:59;;;;;;;;;;;24.80;36.50;;;;;;5075550;28;19928;-62
2024/03/16 09:36:28;;;;;;;;;;;24.80;36.60;;;;;;5075587;28;20042;-63
2024/03/16 09:38:55;;;;;;;;;;;24.70;36.60;;;;;;5075172;28;19933;-62
2024/03/16 09:41:22;;;;;;;;;;;24.80;36.60;;;;;;5075478;28;19924;-64
2024/03/16 09:43:49;;;;;;;;;;;24.80;36.60;;;;;;5074645;28;19967;-62
2024/03/16 09:46:15;;;;;;;;;;;24.80;36.70;;;;;;5074587;28;20293;-62
2024/03/16 09:48:41;;;;;;;;;;;24.80;36.60;;;;;;5074102;28;20377;-62
2024/03/16 09:51:12;;;;;;;;;;;24.80;36.50;;;;;;5073813;28;19924;-62
2024/03/16 09:53:38;;;;;;;;;;;24.80;36.60;;;;;;5074201;28;19938;-62
2024/03/16 09:56:09;;;;;;;;;;;24.80;36.60;;;;;;5074021;28;20447;-62
2024/03/16 09:58:38;;;;;;;;;;;24.80;36.60;;;;;;5073730;28;19928;-62
2024/03/16 10:01:04;;;;;;;;;;;24.80;36.60;;;;;;5074015;28;19936;-62
2024/03/16 10:03:34;;;;;;;;;;;24.80;36.60;;;;;;5073768;28;19931;-63
2024/03/16 10:06:04;;;;;;;;;;;24.80;36.60;;;;;;5074063;28;19925;-62
2024/03/16 10:08:30;;;;;;;;;;;24.90;36.60;;;;;;5074025;28;19950;-63
2024/03/16 10:11:13;;;;;;;;;;;24.90;36.60;;;;;;5073423;28;20370;-62
2024/03/16 10:13:51;;;;;;;;;;;24.90;36.60;;;;;;5057048;28;19931;-62
2024/03/16 10:16:17;;;;;;;;;;;24.90;36.50;;;;;;5073614;28;19924;-63
2024/03/16 10:18:43;;;;;;;;;;;24.90;36.50;;;;;;5056650;28;19925;-62
2024/03/16 10:21:11;;;;;;;;;;;25.00;36.50;;;;;;5073225;28;19924;-62
2024/03/16 10:23:37;;;;;;;;;;;25.00;36.50;;;;;;5073316;28;20401;-63
2024/03/16 10:26:08;;;;;;;;;;;25.00;36.40;;;;;;5073354;28;19932;-62
2024/03/16 10:28:35;;;;;;;;;;;25.00;36.40;;;;;;5073180;28;20385;-63
2024/03/16 10:31:02;;;;;;;;;;;25.00;36.40;;;;;;5056559;28;19936;-62
2024/03/16 10:33:29;;;;;;;;;;;25.10;36.50;;;;;;5056664;28;20275;-62
2024/03/16 10:35:59;;;;;;;;;;;25.00;36.40;;;;;;5073425;28;19928;-62
2024/03/16 10:38:26;;;;;;;;;;;25.00;36.40;;;;;;5072886;28;19974;-62
2024/03/16 10:40:52;;;;;;;;;;;25.00;36.40;;;;;;5073251;28;19998;-62
2024/03/16 10:43:18;;;;;;;;;;;25.10;36.40;;;;;;5072870;28;20370;-62
2024/03/16 10:45:48;;;;;;;;;;;25.10;36.40;;;;;;5073000;28;19928;-62
2024/03/16 10:48:14;;;;;;;;;;;25.10;36.40;;;;;;5073132;28;19931;-63
2024/03/16 10:50:48;;;;;;;;;;;25.10;36.40;;;;;;5072935;28;19931;-62
2024/03/16 10:53:16;;;;;;;;;;;25.10;36.20;;;;;;5056458;28;20333;-62
2024/03/16 10:55:43;;;;;;;;;;;25.20;36.20;;;;;;5072760;28;20378;-63
2024/03/16 10:58:23;;;;;;;;;;;25.20;36.10;;;;;;5072603;28;19924;-62
2024/03/16 11:00:49;;;;;;;;;;;25.30;36.20;;;;;;5072379;28;19924;-62
2024/03/16 11:03:28;;;;;;;;;;;25.30;36.20;;;;;;5072410;28;19935;-62
2024/03/16 11:06:01;;;;;;;;;;;25.30;36.20;;;;;;5072660;28;19925;-63
2024/03/16 11:08:37;;;;;;;;;;;25.30;36.20;;;;;;5072509;28;20294;-62
2024/03/16 11:11:04;;;;;;;;;;;25.30;36.10;;;;;;5072751;28;20282;-62
2024/03/16 11:13:30;;;;;;;;;;;25.40;36.10;;;;;;5072475;28;19939;-62
2024/03/16 11:15:59;;;;;;;;;;;25.40;36.10;;;;;;5055714;28;19924;-62
2024/03/16 11:18:33;;;;;;;;;;;25.40;36.00;;;;;;5072576;28;19928;-62
2024/03/16 11:21:01;;;;;;;;;;;25.40;36.00;;;;;;5071605;28;19924;-62
2024/03/16 11:23:31;;;;;;;;;;;25.50;35.90;;;;;;5055232;28;20382;-62
2024/03/16 11:26:17;;;;;;;;;;;25.50;35.90;;;;;;5072731;28;19925;-62
2024/03/16 11:28:44;;;;;;;;;;;25.50;35.90;;;;;;5055400;28;19932;-63
2024/03/16 11:31:28;;;;;;;;;;;25.50;35.80;;;;;;5072059;28;20382;-62
2024/03/16 11:33:54;;;;;;;;;;;25.60;35.90;;;;;;5072275;28;19928;-63
2024/03/16 11:36:20;;;;;;;;;;;25.60;35.90;;;;;;5072106;28;19924;-62
2024/03/16 11:38:52;;;;;;;;;;;25.60;35.80;;;;;;5071896;28;19943;-63
2024/03/16 11:41:18;;;;;;;;;;;25.60;35.80;;;;;;5072504;28;20296;-62
2024/03/16 11:43:48;;;;;;;;;;;25.60;35.80;;;;;;5071894;28;19929;-63
2024/03/16 11:46:15;;;;;;;;;;;25.50;35.70;;;;;;5072462;28;19932;-63
2024/03/16 11:48:42;;;;;;;;;;;25.60;35.90;;;;;;5072354;28;19951;-62
2024/03/16 11:51:11;;;;;;;;;;;25.60;35.90;;;;;;5055403;28;19975;-62
2024/03/16 11:53:38;;;;;;;;;;;25.60;35.90;;;;;;5071919;28;19924;-62
2024/03/16 11:56:09;;;;;;;;;;;25.60;35.90;;;;;;5072057;28;20411;-62
2024/03/16 11:58:35;;;;;;;;;;;25.60;35.90;;;;;;5071579;28;19928;-62
2024/03/16 12:01:00;;;;;;;;;;;25.50;35.90;;;;;;5072392;28;20034;-63
2024/03/16 12:03:27;;;;;;;;;;;25.50;35.90;;;;;;5071735;28;20362;-62
2024/03/16 12:05:52;;;;;;;;;;;25.50;36.00;;;;;;5071863;28;19924;-63
2024/03/16 12:08:18;;;;;;;;;;;25.50;36.00;;;;;;5075207;28;19931;-62
2024/03/16 12:10:45;;;;;;;;;;;25.50;36.00;;;;;;5059615;28;20025;-62
2024/03/16 12:13:12;;;;;;;;;;;25.50;36.10;;;;;;5075958;28;19924;-62
2024/03/16 12:15:38;;;;;;;;;;;25.50;36.10;;;;;;5076119;28;19932;-62
2024/03/16 12:18:05;;;;;;;;;;;25.50;36.00;;;;;;5075641;28;19924;-62
2024/03/16 12:20:32;;;;;;;;;;;25.60;36.10;;;;;;5075641;28;19924;-62
2024/03/16 12:22:58;;;;;;;;;;;25.50;36.10;;;;;;5075683;28;19924;-63
2024/03/16 12:25:27;;;;;;;;;;;25.60;36.10;;;;;;5075990;28;19958;-62
2024/03/16 12:27:53;;;;;;;;;;;25.50;36.10;;;;;;5075537;28;19932;-62
2024/03/16 12:30:19;;;;;;;;;;;25.50;36.10;;;;;;5075632;28;19932;-62
2024/03/16 12:32:46;;;;;;;;;;;25.50;36.10;;;;;;5075616;28;19928;-62
2024/03/16 12:35:15;;;;;;;;;;;25.50;36.20;;;;;;5075598;28;20328;-62
2024/03/16 12:37:42;;;;;;;;;;;25.50;36.20;;;;;;5075421;28;19928;-62
2024/03/16 12:40:08;;;;;;;;;;;25.50;36.10;;;;;;5075227;28;19925;-62
2024/03/16 12:42:34;;;;;;;;;;;25.50;36.20;;;;;;5075133;28;19986;-62
2024/03/16 12:45:00;;;;;;;;;;;25.50;36.20;;;;;;5075422;28;20289;-63
2024/03/16 12:47:29;;;;;;;;;;;25.50;36.30;;;;;;5075095;28;20374;-62
2024/03/16 12:49:55;;;;;;;;;;;25.50;36.30;;;;;;5075523;28;19928;-63
2024/03/16 12:52:24;;;;;;;;;;;25.50;36.40;;;;;;5075096;28;19978;-62
2024/03/16 12:54:51;;;;;;;;;;;25.40;36.30;;;;;;5074933;28;20382;-62
2024/03/16 12:57:17;;;;;;;;;;;25.50;36.40;;;;;;5075212;28;19924;-62
2024/03/16 12:59:43;;;;;;;;;;;25.50;36.50;;;;;;5074919;28;19924;-62
2024/03/16 13:02:09;;;;;;;;;;;25.40;36.40;;;;;;5074882;28;19924;-62
2024/03/16 13:04:38;;;;;;;;;;;25.40;36.50;;;;;;5075215;28;19975;-62
2024/03/16 13:07:04;;;;;;;;;;;25.40;36.50;;;;;;5074753;28;19931;-62
2024/03/16 13:09:30;;;;;;;;;;;25.40;36.50;;;;;;5074820;28;19928;-62
2024/03/16 13:11:56;;;;;;;;;;;25.40;36.50;;;;;;5058036;28;19925;-63
2024/03/16 13:14:22;;;;;;;;;;;25.40;36.50;;;;;;5074864;28;19947;-62
2024/03/16 13:16:48;;;;;;;;;;;25.40;36.50;;;;;;5074746;28;19925;-62
2024/03/16 13:19:14;;;;;;;;;;;25.50;36.60;;;;;;5073252;28;19939;-62
2024/03/16 13:21:40;;;;;;;;;;;25.50;36.60;;;;;;5074573;28;19925;-62
2024/03/16 13:24:06;;;;;;;;;;;25.50;36.60;;;;;;5074854;28;19976;-62
2024/03/16 13:26:32;;;;;;;;;;;25.50;36.60;;;;;;5074641;28;19924;-62
2024/03/16 13:28:59;;;;;;;;;;;25.50;36.50;;;;;;5057723;28;19924;-62
2024/03/16 13:31:25;;;;;;;;;;;25.50;36.50;;;;;;5074403;28;20405;-62
2024/03/16 13:33:51;;;;;;;;;;;25.50;36.50;;;;;;5074712;28;19924;-62
2024/03/16 13:36:17;;;;;;;;;;;25.50;36.50;;;;;;5074689;28;19924;-62
2024/03/16 13:38:43;;;;;;;;;;;25.60;36.50;;;;;;5057541;28;20392;-62
2024/03/16 13:41:12;;;;;;;;;;;25.60;36.60;;;;;;5074592;28;20359;-62
2024/03/16 13:43:39;;;;;;;;;;;25.60;36.60;;;;;;5074422;28;19924;-62
2024/03/16 13:46:04;;;;;;;;;;;25.60;36.60;;;;;;5073988;28;19928;-62
2024/03/16 13:48:30;;;;;;;;;;;25.60;36.70;;;;;;5074085;28;19970;-62
2024/03/16 13:50:56;;;;;;;;;;;25.60;36.70;;;;;;5073743;28;19950;-62
2024/03/16 13:53:22;;;;;;;;;;;25.60;36.70;;;;;;5073896;28;19995;-62
2024/03/16 13:55:49;;;;;;;;;;;25.60;36.70;;;;;;5074377;28;19924;-62
2024/03/16 13:58:15;;;;;;;;;;;25.60;36.70;;;;;;5073894;28;19928;-62
2024/03/16 14:00:41;;;;;;;;;;;25.60;36.70;;;;;;5073653;28;19924;-62
2024/03/16 14:03:08;;;;;;;;;;;25.60;36.80;;;;;;5057458;28;19924;-62
2024/03/16 14:05:33;;;;;;;;;;;25.60;36.80;;;;;;5073637;28;19931;-62
2024/03/16 14:08:00;;;;;;;;;;;25.60;37.40;;;;;;5073654;28;19925;-62
2024/03/16 14:10:29;;;;;;;;;;;25.50;36.70;;;;;;5074108;28;19924;-62
2024/03/16 14:12:56;;;;;;;;;;;25.60;36.80;;;;;;5073617;28;19970;-62
2024/03/16 14:15:22;;;;;;;;;;;25.50;37.30;;;;;;5073765;28;20057;-62
2024/03/16 14:17:48;;;;;;;;;;;25.50;36.80;;;;;;5072934;28;20393;-62